Mexico City Airport, Mexico

6:14 AM CST on February 09, 2016 (GMT -0600)
Alamos | | Change Station
CLOSE
Current Station
Personal Weather Station
Location: Ciudad De Mexico, DISTRITO FEDERAL
Elevation: 7346 ft
Nearby Weather Stations

Elev 7346 ft 19.40 °N, 99.14 °W | Updated 10 seconds ago

Mostly Cloudy
Mostly Cloudy
43.5 °F
Feels Like 44 °F
N
0.0
Wind Variable Wind from NNW
Gusts 0.0 mph

Today
High -- | Low -- °F
--% Chance of Precip.
Yesterday
High -- | Low -- °F
Precip. -- in
Pressure 29.97 in
Visibility 5.0 miles
Clouds Scattered Clouds 2000 ft
Mostly Cloudy 7000 ft
Mostly Cloudy 20000 ft
Windchill 44 °F
Dew Point 32 °F
Humidity 63%
Rainfall 0.00 in
Snow Depth Not available.
7:08 AM 6:33 PM
New Moon, 1% visible
METAR MMTO 091149Z 30003KT 5SM SCT020 BKN070 BKN200 04/M02 A3042 RMK SLP148 57003 903 8/532 HZY
Pressure 29.97 in
Visibility 5.0 miles
Clouds Scattered Clouds 2000 ft
Mostly Cloudy 7000 ft
Mostly Cloudy 20000 ft
Windchill 44 °F
Dew Point 32 °F
Humidity 63%
Rainfall 0.00 in
Snow Depth Not available.
7:08 AM 6:33 PM
New Moon, 1% visible
METAR MMTO 091149Z 30003KT 5SM SCT020 BKN070 BKN200 04/M02 A3042 RMK SLP148 57003 903 8/532 HZY

10-Day Weather Forecast

No radar image for this location.
×

Almanac

Astronomy

Feb. 09, 2016 Rise Set
Actual Time
Civil Twilight
Nautical Twilight
Astronomical Twilight
Moon
Length of Visible Light
Length of Day
Tomorrow will be .
, % of the Moon is Illuminated

Today's Extremes

Country Highs Country Lows

Community

WunderPhotos

Upload Photos

1,891,588 photos uploaded!

WunderBlog® & News

Nearby

Air Quality

  Air Quality AQ Index Pollutant
Not available.

Snow Depth

Station Depth Elevation

Earthquake Activity

City Distance Mag. Time & Date
Minimum magnitude displayed is 2.5.

Coastal Water Temperatures

Place Temperature

Stations

Nearby Weather Stations

Station Location Temp. Windchill Dew Point Humidity Wind Precip. Elev Updated Type